Time;durP1;ratioP1;P1;durP2;ratioP2;P2;SDS_P1;SDS_P2;PMS_P1;PMS_P2;Temp;Humidity;BMP_temperature;BMP_pressure;BME280_temperature;BME280_humidity;BME280_pressure;Samples;Min_cycle;Max_cycle;Signal;HPM_P1;HPM_P2
2021/09/25 00:01:43;;;;;;;;;;;;;;;-144.99;98.58;52431.78;5050027;28;19988;-78
2021/09/25 00:04:09;;;;;;;;;;;;;;;-144.99;99.09;52415.47;5051205;28;19988;-75
2021/09/25 00:06:36;;;;;;;;;;;;;;;-144.99;99.15;52448.09;5054635;28;20409;-75
2021/09/25 00:09:03;;;;;;;;;;;;;;;-144.99;99.24;52419.56;5051902;28;20015;-76
2021/09/25 00:11:29;;;;;;;;;;;;;;;-144.99;99.08;52427.72;5049468;28;19993;-80
2021/09/25 00:13:56;;;;;;;;;;;;;;;-144.99;99.19;52423.63;5062721;28;20013;-78
2021/09/25 00:16:25;;;;;;;;;;;;;;;-144.99;99.47;52460.31;5059088;28;20525;-80
2021/09/25 00:18:54;;;;;;;;;;;;;;;-144.99;99.33;52397.13;5059100;28;20027;-79
2021/09/25 00:21:20;;;;;;;;;;;;;;;-144.99;99.60;52407.31;5051853;28;19987;-80
2021/09/25 00:23:47;;;;;;;;;;;;;;;-144.99;99.60;52397.13;5054906;28;19941;-81
2021/09/25 00:26:13;;;;;;;;;;;;;;;-144.99;99.45;52423.63;5054904;28;20004;-79
2021/09/25 00:28:40;;;;;;;;;;;;;;;-144.99;99.52;52407.31;5052828;28;20058;-75
2021/09/25 00:31:06;;;;;;;;;;;;;;;-144.99;99.27;52409.38;5057300;28;19998;-80
2021/09/25 00:33:32;;;;;;;;;;;;;;;-144.99;99.29;52386.94;5055531;28;19982;-79
2021/09/25 00:36:00;;;;;;;;;;;;;;;-144.99;99.71;52427.72;5057738;28;19997;-79
2021/09/25 00:38:27;;;;;;;;;;;;;;;-144.99;99.07;52444.03;5052925;28;19996;-79
2021/09/25 00:40:53;;;;;;;;;;;;;;;-144.99;99.33;52427.72;5058066;28;19988;-79
2021/09/25 00:43:20;;;;;;;;;;;;;;;-144.99;99.97;52403.25;5053649;28;20068;-80
2021/09/25 00:45:46;;;;;;;;;;;;;;;-144.99;100.00;52423.63;5055035;28;19988;-77
2021/09/25 00:48:13;;;;;;;;;;;;;;;-144.99;100.00;52419.56;5056589;28;20057;-78
2021/09/25 00:50:39;;;;;;;;;;;;;;;-144.99;100.00;52419.56;5052315;28;20405;-78
2021/09/25 00:53:07;;;;;;;;;;;;;;;-144.99;100.00;52427.72;5045264;22;20083;-77
2021/09/25 00:55:33;;;;;;;;;;;;;;;-144.99;100.00;52407.31;5029323;28;20060;-78
2021/09/25 00:58:01;;;;;;;;;;;;;;;-144.99;100.00;52409.38;5037166;28;20000;-77
2021/09/25 01:00:27;;;;;;;;;;;;;;;-144.99;100.00;52407.31;5025045;28;20036;-78
2021/09/25 01:02:54;;;;;;;;;;;;;;;-144.99;100.00;52431.78;5030584;28;19993;-77
2021/09/25 01:05:22;;;;;;;;;;;;;;;-144.99;100.00;52407.31;5035244;28;19979;-77
2021/09/25 01:07:49;;;;;;;;;;;;;;;-144.99;100.00;52464.41;5035370;28;19985;-78
2021/09/25 01:10:17;;;;;;;;;;;;;;;-144.99;100.00;52407.31;5027919;28;20088;-78
2021/09/25 01:12:44;;;;;;;;;;;;;;;-144.99;100.00;52427.72;5032673;28;20441;-78
2021/09/25 01:15:11;;;;;;;;;;;;;;;-144.99;100.00;52407.31;5031300;28;19977;-78
2021/09/25 01:17:37;;;;;;;;;;;;;;;-144.99;100.00;52407.31;5032178;28;20351;-78
2021/09/25 01:20:05;;;;;;;;;;;;;;;-144.99;100.00;52395.09;5034781;28;19979;-77
2021/09/25 01:22:32;;;;;;;;;;;;;;;-144.99;100.00;52454.22;5032245;28;20040;-78
2021/09/25 01:24:59;;;;;;;;;;;;;;;-144.99;100.00;52444.03;5024567;28;20071;-77
2021/09/25 01:27:25;;;;;;;;;;;;;;;-144.99;100.00;52399.19;5030586;28;19989;-78
2021/09/25 01:29:52;;;;;;;;;;;;;;;-144.99;100.00;52425.66;5027271;28;19925;-79
2021/09/25 01:32:18;;;;;;;;;;;;;;;-144.99;100.00;52407.31;5027250;28;20437;-76
2021/09/25 01:34:45;;;;;;;;;;;;;;;-144.99;100.00;52407.31;5029261;28;19981;-76
2021/09/25 01:37:11;;;;;;;;;;;;;;;-144.99;100.00;52439.94;5027015;28;20000;-75
2021/09/25 01:39:39;;;;;;;;;;;;;;;-144.99;100.00;52444.03;5028635;28;19984;-75
2021/09/25 01:42:06;;;;;;;;;;;;;;;-144.99;100.00;52431.78;5032059;28;20516;-74
2021/09/25 01:44:32;;;;;;;;;;;;;;;-144.99;100.00;52452.16;5023413;28;19988;-75
2021/09/25 01:46:59;;;;;;;;;;;;;;;-144.99;100.00;52403.25;5032736;28;19973;-76
2021/09/25 01:49:26;;;;;;;;;;;;;;;-144.99;100.00;52411.41;5045379;28;20008;-77
2021/09/25 01:51:53;;;;;;;;;;;;;;;-144.99;100.00;52439.94;5030634;28;20375;-76
2021/09/25 01:54:20;;;;;;;;;;;;;;;-144.99;100.00;52423.63;5030059;28;20434;-75
2021/09/25 01:56:48;;;;;;;;;;;;;;;-144.99;100.00;52462.34;5027727;28;20065;-77
2021/09/25 01:59:14;;;;;;;;;;;;;;;-144.99;100.00;52388.97;5029840;28;20048;-76
2021/09/25 02:01:41;;;;;;;;;;;;;;;-144.99;100.00;52450.13;5028365;28;19992;-78
2021/09/25 02:04:07;;;;;;;;;;;;;;;-144.99;100.00;52431.78;5037306;28;19988;-74
2021/09/25 02:06:34;;;;;;;;;;;;;;;-144.99;100.00;52370.63;5029595;28;19987;-76
2021/09/25 02:09:00;;;;;;;;;;;;;;;-144.99;100.00;52419.56;5030554;28;20185;-78
2021/09/25 02:11:27;;;;;;;;;;;;;;;-144.99;100.00;52415.47;5029818;28;20027;-77
2021/09/25 02:13:54;;;;;;;;;;;;;;;-144.99;100.00;52415.47;5028819;28;20020;-76
2021/09/25 02:16:21;;;;;;;;;;;;;;;-144.99;100.00;52435.88;5029171;28;20072;-76
2021/09/25 02:18:47;;;;;;;;;;;;;;;-144.99;100.00;52419.56;5029148;28;20011;-75
2021/09/25 02:21:14;;;;;;;;;;;;;;;-144.99;100.00;52439.94;5031053;28;19973;-76
2021/09/25 02:23:40;;;;;;;;;;;;;;;-144.99;100.00;52435.88;5027389;28;19997;-76
2021/09/25 02:26:08;;;;;;;;;;;;;;;-144.99;100.00;52427.72;5031914;28;20395;-76
2021/09/25 02:28:34;;;;;;;;;;;;;;;-144.99;100.00;52423.63;5031940;28;20076;-76
2021/09/25 02:31:03;;;;;;;;;;;;;;;-144.99;100.00;52427.72;5035815;28;19974;-76
2021/09/25 02:33:30;;;;;;;;;;;;;;;-144.99;100.00;52393.06;5030806;28;19993;-77
2021/09/25 02:35:57;;;;;;;;;;;;;;;-144.99;100.00;52423.63;5034419;28;20137;-77
2021/09/25 02:38:23;;;;;;;;;;;;;;;-144.99;100.00;52431.78;5033235;28;20430;-77
2021/09/25 02:40:50;;;;;;;;;;;;;;;-144.99;100.00;52444.03;5032701;28;20166;-76
2021/09/25 02:43:16;;;;;;;;;;;;;;;-144.99;100.00;52427.72;5030636;28;19994;-75
2021/09/25 02:45:42;;;;;;;;;;;;;;;-144.99;100.00;52435.88;5025351;28;20359;-77
2021/09/25 02:48:10;;;;;;;;;;;;;;;-144.99;100.00;52399.19;5031303;28;19973;-76
2021/09/25 02:50:37;;;;;;;;;;;;;;;-144.99;100.00;52431.78;5029600;28;20064;-76
2021/09/25 02:53:03;;;;;;;;;;;;;;;-144.99;100.00;52423.63;5032226;28;19993;-77
2021/09/25 02:55:30;;;;;;;;;;;;;;;-144.99;100.00;52407.31;5028482;28;19974;-79
2021/09/25 02:57:56;;;;;;;;;;;;;;;-144.99;100.00;52386.94;5031022;28;20084;-78
2021/09/25 03:00:23;;;;;;;;;;;;;;;-144.99;100.00;52439.94;5034075;28;19984;-78
2021/09/25 03:02:50;;;;;;;;;;;;;;;-144.99;100.00;52421.59;5024760;28;19999;-79
2021/09/25 03:05:18;;;;;;;;;;;;;;;-144.99;100.00;52439.94;5029704;28;20057;-79
2021/09/25 03:07:44;;;;;;;;;;;;;;;-144.99;100.00;52427.72;5040010;28;19985;-80
2021/09/25 03:10:11;;;;;;;;;;;;;;;-144.99;100.00;52427.72;5027282;28;20600;-80
2021/09/25 03:12:38;;;;;;;;;;;;;;;-144.99;100.00;52423.63;5032563;28;20367;-80
2021/09/25 03:15:05;;;;;;;;;;;;;;;-144.99;100.00;52403.25;5039154;28;19973;-77
2021/09/25 03:17:32;;;;;;;;;;;;;;;-144.99;100.00;52431.78;5028972;28;20460;-78
2021/09/25 03:19:58;;;;;;;;;;;;;;;-144.99;100.00;52429.75;5032919;28;19980;-76
2021/09/25 03:22:26;;;;;;;;;;;;;;;-144.99;100.00;52429.75;5033637;28;20096;-76
2021/09/25 03:24:53;;;;;;;;;;;;;;;-144.99;100.00;52407.31;5028684;28;20071;-77
2021/09/25 03:27:19;;;;;;;;;;;;;;;-144.99;100.00;52456.25;5023823;28;19980;-77
2021/09/25 03:29:46;;;;;;;;;;;;;;;-144.99;100.00;52435.88;5031772;28;19978;-76
2021/09/25 03:32:12;;;;;;;;;;;;;;;-144.99;100.00;52444.03;5029671;28;20442;-74
2021/09/25 03:34:38;;;;;;;;;;;;;;;-144.99;100.00;52415.47;5031752;28;20353;-76
2021/09/25 03:37:05;;;;;;;;;;;;;;;-144.99;100.00;52395.09;5032012;28;19984;-75
2021/09/25 03:39:36;;;;;;;;;;;;;;;-144.99;100.00;52419.56;5029051;28;19991;-75
2021/09/25 03:42:03;;;;;;;;;;;;;;;-144.99;100.00;52450.13;5032170;28;20000;-75
2021/09/25 03:44:30;;;;;;;;;;;;;;;-144.99;100.00;52399.19;5029321;28;19987;-77
2021/09/25 03:46:56;;;;;;;;;;;;;;;-144.99;100.00;52419.56;5030915;28;20342;-76
2021/09/25 03:49:23;;;;;;;;;;;;;;;-144.99;100.00;52409.38;5031266;28;20113;-77
2021/09/25 03:51:49;;;;;;;;;;;;;;;-144.99;100.00;52444.03;5025725;28;20087;-76
2021/09/25 03:54:15;;;;;;;;;;;;;;;-144.99;100.00;52437.91;5033590;28;20064;-75
2021/09/25 03:56:43;;;;;;;;;;;;;;;-144.99;100.00;52403.25;5027274;28;19973;-77
2021/09/25 03:59:10;;;;;;;;;;;;;;;-144.99;100.00;52382.88;5027563;28;19989;-78
2021/09/25 04:01:37;;;;;;;;;;;;;;;-144.99;100.00;52415.47;5037695;28;20009;-79
2021/09/25 04:04:03;;;;;;;;;;;;;;;-144.99;100.00;52468.47;5043478;28;19977;-77
2021/09/25 04:06:29;;;;;;;;;;;;;;;-144.99;100.00;52437.91;5031997;28;19975;-77
2021/09/25 04:08:56;;;;;;;;;;;;;;;-144.99;100.00;52391.03;5029565;28;19942;-77
2021/09/25 04:11:23;;;;;;;;;;;;;;;-144.99;100.00;52407.31;5026478;28;19973;-78
2021/09/25 04:13:50;;;;;;;;;;;;;;;-144.99;100.00;52391.03;5030154;28;19977;-77
2021/09/25 04:16:17;;;;;;;;;;;;;;;-144.99;100.00;52427.72;5028757;28;19974;-78
2021/09/25 04:18:43;;;;;;;;;;;;;;;-144.99;100.00;52403.25;5033214;28;20414;-77
2021/09/25 04:21:10;;;;;;;;;;;;;;;-144.99;100.00;52411.41;5033007;28;20060;-77
2021/09/25 04:23:36;;;;;;;;;;;;;;;-144.99;100.00;52407.31;5028510;28;19989;-77
2021/09/25 04:26:03;;;;;;;;;;;;;;;-144.99;100.00;52407.31;5040941;28;19973;-77
2021/09/25 04:28:29;;;;;;;;;;;;;;;-144.99;100.00;52411.41;5034097;28;19978;-76
2021/09/25 04:30:57;;;;;;;;;;;;;;;-144.99;100.00;52472.56;5032960;28;19978;-77
2021/09/25 04:33:23;;;;;;;;;;;;;;;-144.99;100.00;52429.75;5035621;28;20029;-76
2021/09/25 04:35:50;;;;;;;;;;;;;;;-144.99;100.00;52407.31;5028467;28;19982;-77
2021/09/25 04:38:16;;;;;;;;;;;;;;;-144.99;100.00;52431.78;5033760;28;19997;-78
2021/09/25 04:40:43;;;;;;;;;;;;;;;-144.99;100.00;52399.19;5025756;28;19963;-80
2021/09/25 04:43:09;;;;;;;;;;;;;;;-144.99;100.00;52407.31;5031818;28;20043;-80
2021/09/25 04:45:36;;;;;;;;;;;;;;;-144.99;100.00;52378.78;5033464;28;19973;-80
2021/09/25 04:48:04;;;;;;;;;;;;;;;-144.99;100.00;52460.31;5049702;28;19944;-81
2021/09/25 04:50:30;;;;;;;;;;;;;;;-144.99;100.00;52407.31;5054925;28;19980;-80
2021/09/25 04:53:05;;;;;;;;;;;;;;;-144.99;100.00;52370.63;5034463;28;20119;-76
2021/09/25 04:55:31;;;;;;;;;;;;;;;-144.99;100.00;52437.91;5032558;28;19980;-77
2021/09/25 04:57:57;;;;;;;;;;;;;;;-144.99;100.00;52415.47;5039183;28;20407;-77
2021/09/25 05:00:24;;;;;;;;;;;;;;;-144.99;100.00;52433.81;5041001;28;20389;-76
2021/09/25 05:02:50;;;;;;;;;;;;;;;-144.99;100.00;52391.03;5035340;28;20003;-76
2021/09/25 05:05:18;;;;;;;;;;;;;;;-144.99;100.00;52435.88;5039385;28;20358;-77
2021/09/25 05:07:45;;;;;;;;;;;;;;;-144.99;100.00;52415.47;5027409;28;19974;-76
2021/09/25 05:10:11;;;;;;;;;;;;;;;-144.99;100.00;52395.09;5029431;28;20072;-76
2021/09/25 05:12:38;;;;;;;;;;;;;;;-144.99;100.00;52419.56;5035897;28;19997;-76
2021/09/25 05:15:05;;;;;;;;;;;;;;;-144.99;100.00;52413.44;5032061;28;20031;-76
2021/09/25 05:17:31;;;;;;;;;;;;;;;-144.99;100.00;52427.72;5036686;28;19982;-77
2021/09/25 05:19:58;;;;;;;;;;;;;;;-144.99;100.00;52417.53;5032819;28;19999;-76
2021/09/25 05:22:25;;;;;;;;;;;;;;;-144.99;100.00;52413.44;5035671;28;19997;-75
2021/09/25 05:24:52;;;;;;;;;;;;;;;-144.99;100.00;52439.94;5038775;28;19979;-75
2021/09/25 05:27:18;;;;;;;;;;;;;;;-144.99;100.00;52448.09;5029933;28;20023;-75
2021/09/25 05:29:45;;;;;;;;;;;;;;;-144.99;100.00;52427.72;5035843;28;19978;-74
2021/09/25 05:32:11;;;;;;;;;;;;;;;-144.99;100.00;52444.03;5034976;28;19989;-75
2021/09/25 05:34:37;;;;;;;;;;;;;;;-144.99;100.00;52431.78;5034723;28;19981;-77
2021/09/25 05:37:05;;;;;;;;;;;;;;;-144.99;100.00;52411.41;5038073;28;19981;-77
2021/09/25 05:39:33;;;;;;;;;;;;;;;-144.99;100.00;52427.72;5029540;28;20016;-78
2021/09/25 05:41:59;;;;;;;;;;;;;;;-144.99;100.00;52439.94;5032816;28;20460;-77
2021/09/25 05:44:25;;;;;;;;;;;;;;;-144.99;100.00;52452.16;5038026;28;19931;-78
2021/09/25 05:46:52;;;;;;;;;;;;;;;-144.99;100.00;52437.91;5033905;28;20021;-78
2021/09/25 05:49:19;;;;;;;;;;;;;;;-144.99;100.00;52437.91;5029712;28;19993;-79
2021/09/25 05:51:45;;;;;;;;;;;;;;;-144.99;100.00;52419.56;5033607;28;19997;-78
2021/09/25 05:54:12;;;;;;;;;;;;;;;-144.99;100.00;52421.59;5029091;28;19979;-78
2021/09/25 05:56:39;;;;;;;;;;;;;;;-144.99;100.00;52439.94;5029160;28;19960;-80
2021/09/25 05:59:06;;;;;;;;;;;;;;;-144.99;100.00;52370.63;5040282;28;19994;-75
2021/09/25 06:01:32;;;;;;;;;;;;;;;-144.99;100.00;52439.94;5035537;28;20025;-75
2021/09/25 06:03:59;;;;;;;;;;;;;;;-144.99;100.00;52386.94;5031199;28;19973;-76
2021/09/25 06:06:25;;;;;;;;;;;;;;;-144.99;100.00;52439.94;5030491;28;19977;-76
2021/09/25 06:08:51;;;;;;;;;;;;;;;-144.99;100.00;52452.16;5038551;28;20060;-77
2021/09/25 06:11:18;;;;;;;;;;;;;;;-144.99;100.00;52431.78;5037237;28;19978;-78
2021/09/25 06:13:46;;;;;;;;;;;;;;;-144.99;100.00;52413.44;5031239;28;19999;-78
2021/09/25 06:16:13;;;;;;;;;;;;;;;-144.99;100.00;52415.47;5033784;28;19973;-78
2021/09/25 06:18:39;;;;;;;;;;;;;;;-144.99;100.00;52419.56;5036309;28;20047;-76
2021/09/25 06:21:06;;;;;;;;;;;;;;;-144.99;100.00;52435.88;5037634;28;20499;-78
2021/09/25 06:23:32;;;;;;;;;;;;;;;-144.99;100.00;52423.63;5036830;28;20472;-78
2021/09/25 06:25:59;;;;;;;;;;;;;;;-144.99;100.00;52427.72;5029617;28;20470;-79
2021/09/25 06:28:25;;;;;;;;;;;;;;;-144.99;100.00;52403.25;5029923;28;20077;-78
2021/09/25 06:30:54;;;;;;;;;;;;;;;-144.99;100.00;52411.41;5050576;28;20410;-79
2021/09/25 06:33:21;;;;;;;;;;;;;;;-144.99;100.00;52452.16;5039350;28;20487;-77
2021/09/25 06:35:48;;;;;;;;;;;;;;;-144.99;100.00;52409.38;5039117;28;20327;-77
2021/09/25 06:38:14;;;;;;;;;;;;;;;-144.99;100.00;52439.94;5037787;28;19977;-77
2021/09/25 06:40:40;;;;;;;;;;;;;;;-144.99;100.00;52431.78;5037074;28;19989;-77
2021/09/25 06:43:07;;;;;;;;;;;;;;;-144.99;100.00;52382.88;5042324;28;20069;-77
2021/09/25 06:45:35;;;;;;;;;;;;;;;-144.99;100.00;52415.47;5043397;28;20060;-77
2021/09/25 06:48:03;;;;;;;;;;;;;;;-144.99;100.00;52435.88;5036840;28;19985;-77
2021/09/25 06:50:29;;;;;;;;;;;;;;;-144.99;100.00;52386.94;5029016;28;20008;-77
2021/09/25 06:52:56;;;;;;;;;;;;;;;-144.99;100.00;52441.97;5035257;28;20035;-78
2021/09/25 06:55:22;;;;;;;;;;;;;;;-144.99;100.00;52407.31;5029447;28;19973;-76
2021/09/25 06:57:49;;;;;;;;;;;;;;;-144.99;100.00;52399.19;5067670;22;20001;-78
2021/09/25 07:00:15;;;;;;;;;;;;;;;-144.99;100.00;52382.88;5042539;28;19994;-77
2021/09/25 07:02:42;;;;;;;;;;;;;;;-144.99;100.00;52431.78;5051101;28;19992;-78
2021/09/25 07:05:11;;;;;;;;;;;;;;;-144.99;100.00;52370.63;5045049;28;19978;-70
2021/09/25 07:07:37;;;;;;;;;;;;;;;-144.99;100.00;52415.47;5044386;28;20055;-73
2021/09/25 07:10:04;;;;;;;;;;;;;;;-144.99;100.00;52382.88;5045180;28;19980;-72
2021/09/25 07:12:31;;;;;;;;;;;;;;;-144.99;100.00;52391.03;5044780;28;19977;-71
2021/09/25 07:14:57;;;;;;;;;;;;;;;-144.99;100.00;52358.41;5044779;28;19973;-70
2021/09/25 07:17:24;;;;;;;;;;;;;;;-144.99;100.00;52419.56;5045353;28;20004;-71
2021/09/25 07:19:50;;;;;;;;;;;;;;;-144.99;100.00;52370.63;5043984;28;20004;-69
2021/09/25 07:22:18;;;;;;;;;;;;;;;-144.99;100.00;52395.09;5043966;28;20453;-69
2021/09/25 07:24:44;;;;;;;;;;;;;;;-144.99;100.00;52388.97;5045039;28;20446;-69
2021/09/25 07:27:15;;;;;;;;;;;;;;;-144.99;100.00;52425.66;5044519;28;19978;-70
2021/09/25 07:29:43;;;;;;;;;;;;;;;-144.99;100.00;52376.75;5044883;28;20570;-70
2021/09/25 07:32:10;;;;;;;;;;;;;;;-144.99;100.00;52395.09;5045637;28;20179;-69
2021/09/25 07:34:38;;;;;;;;;;;;;;;-144.99;100.00;52378.78;5045125;28;19982;-69
2021/09/25 07:37:05;;;;;;;;;;;;;;;-144.99;100.00;52366.56;5044598;28;20000;-78
2021/09/25 07:39:34;;;;;;;;;;;;;;;-144.99;100.00;52370.63;5046530;28;20000;-76
2021/09/25 07:42:01;;;;;;;;;;;;;;;-144.99;100.00;52395.09;5046328;28;19973;-74
2021/09/25 07:44:27;;;;;;;;;;;;;;;-144.99;100.00;52431.78;5045803;28;19992;-76
2021/09/25 07:46:54;;;;;;;;;;;;;;;-144.99;100.00;52391.03;5045313;28;20472;-75
2021/09/25 07:49:23;;;;;;;;;;;;;;;-144.99;100.00;52382.88;5043966;28;20064;-78
2021/09/25 07:51:49;;;;;;;;;;;;;;;-144.99;100.00;52382.88;5044778;28;20071;-75
2021/09/25 07:54:16;;;;;;;;;;;;;;;-144.99;100.00;52362.50;5047104;28;19983;-78
2021/09/25 07:56:43;;;;;;;;;;;;;;;-144.99;100.00;52391.03;5045412;28;19990;-76
2021/09/25 07:59:10;;;;;;;;;;;;;;;-144.99;100.00;52382.88;4349370;28;10000771;-76
2021/09/25 08:01:36;;;;;;;;;;;;;;;-144.99;100.00;52382.88;5044842;28;19974;-75
2021/09/25 08:04:03;;;;;;;;;;;;;;;-144.99;100.00;52362.50;5048732;28;20535;-78
2021/09/25 08:06:29;;;;;;;;;;;;;;;-144.99;100.00;52407.31;5046266;28;20230;-77
2021/09/25 08:08:56;;;;;;;;;;;;;;;-144.99;100.00;52391.03;5041889;28;20045;-75
2021/09/25 08:11:22;;;;;;;;;;;;;;;-144.99;100.00;52376.75;5059745;28;19979;-76
2021/09/25 08:13:50;;;;;;;;;;;;;;;-144.99;100.00;52382.88;5051536;28;19984;-77
2021/09/25 08:16:16;;;;;;;;;;;;;;;-144.99;100.00;52370.63;5050362;28;20566;-76
2021/09/25 08:18:43;;;;;;;;;;;;;;;-144.99;100.00;52358.41;5051303;28;20020;-77
2021/09/25 08:21:09;;;;;;;;;;;;;;;-144.99;100.00;52362.50;5056369;28;20603;-75
2021/09/25 08:23:36;;;;;;;;;;;;;;;-144.99;100.00;52374.72;5059320;28;19978;-75
2021/09/25 08:26:02;;;;;;;;;;;;;;;-144.99;100.00;52374.72;5048768;28;19943;-74
2021/09/25 08:28:29;;;;;;;;;;;;;;;-144.99;100.00;52382.88;5061446;28;20472;-76
2021/09/25 08:30:56;;;;;;;;;;;;;;;-144.99;100.00;52382.88;5055067;28;19989;-76
2021/09/25 08:33:23;;;;;;;;;;;;;;;-144.99;100.00;52350.25;5054279;28;20366;-76
2021/09/25 08:35:49;;;;;;;;;;;;;;;-144.99;100.00;52370.63;5066734;28;20078;-76
2021/09/25 08:38:16;;;;;;;;;;;;;;;-144.99;100.00;52395.09;5057779;28;20027;-76
2021/09/25 08:40:42;;;;;;;;;;;;;;;-144.99;100.00;52407.31;5053948;28;20083;-74
2021/09/25 08:43:09;;;;;;;;;;;;;;;-144.99;100.00;52395.09;5054235;28;20020;-76
2021/09/25 08:45:35;;;;;;;;;;;;;;;-144.99;100.00;52382.88;5053408;28;20080;-75
2021/09/25 08:48:03;;;;;;;;;;;;;;;-144.99;100.00;52366.56;5053312;28;20398;-76
2021/09/25 08:50:29;;;;;;;;;;;;;;;-144.99;100.00;52382.88;5053267;28;20075;-77
2021/09/25 08:52:56;;;;;;;;;;;;;;;-144.99;100.00;52368.59;5052715;28;19984;-76
2021/09/25 08:55:23;;;;;;;;;;;;;;;-144.99;100.00;52376.75;5053864;28;20248;-76
2021/09/25 08:57:52;;;;;;;;;;;;;;;-144.99;100.00;52346.19;5054033;28;19999;-75
2021/09/25 09:00:25;;;;;;;;;;;;;;;-144.99;100.00;52382.88;5054072;28;20084;-77
2021/09/25 09:02:52;;;;;;;;;;;;;;;-144.99;100.00;52370.63;5059633;28;20079;-76
2021/09/25 09:05:28;;;;;;;;;;;;;;;-144.99;100.00;52350.25;5063406;28;20064;-76
2021/09/25 09:07:56;;;;;;;;;;;;;;;-144.99;100.00;52386.94;5059665;28;20323;-75
2021/09/25 09:10:26;;;;;;;;;;;;;;;-144.99;100.00;52391.03;5054407;28;20031;-76
2021/09/25 09:12:52;;;;;;;;;;;;;;;-144.99;100.00;52407.31;5053547;28;19980;-76
2021/09/25 09:15:19;;;;;;;;;;;;;;;-144.99;100.00;52419.56;5053485;28;20032;-75
2021/09/25 09:17:46;;;;;;;;;;;;;;;-144.99;100.00;52366.56;5053837;28;19992;-76
2021/09/25 09:20:13;;;;;;;;;;;;;;;-144.99;100.00;52401.22;5053789;28;19989;-76
2021/09/25 09:22:41;;;;;;;;;;;;;;;-144.99;100.00;52370.63;5061309;28;19997;-76
2021/09/25 09:25:07;;;;;;;;;;;;;;;-144.99;100.00;52395.09;5053409;28;20435;-77
2021/09/25 09:27:34;;;;;;;;;;;;;;;-144.99;100.00;52362.50;5052723;28;19997;-76
2021/09/25 09:30:07;;;;;;;;;;;;;;;-144.99;100.00;52348.22;5053042;28;20292;-77
2021/09/25 09:32:38;;;;;;;;;;;;;;;-144.99;100.00;52388.97;5052557;28;20073;-76
2021/09/25 09:35:08;;;;;;;;;;;;;;;-144.99;100.00;52358.41;5049422;28;20211;-74
2021/09/25 09:37:34;;;;;;;;;;;;;;;-144.99;100.00;52395.09;5052211;28;20004;-76
2021/09/25 09:40:03;;;;;;;;;;;;;;;-144.99;100.00;52376.75;5051793;28;19999;-77
2021/09/25 09:42:32;;;;;;;;;;;;;;;-144.99;100.00;52366.56;5051887;28;20461;-76
2021/09/25 09:44:59;;;;;;;;;;;;;;;-144.99;100.00;52391.03;5052873;28;19991;-76
2021/09/25 09:47:25;;;;;;;;;;;;;;;-144.99;100.00;52370.63;5052858;28;20278;-77
2021/09/25 09:49:56;;;;;;;;;;;;;;;-144.99;100.00;52352.28;5052604;28;19989;-75
2021/09/25 09:52:22;;;;;;;;;;;;;;;-144.99;100.00;52354.34;5051375;28;20438;-75
2021/09/25 09:54:50;;;;;;;;;;;;;;;-144.99;100.00;52395.09;5052940;28;19986;-75
2021/09/25 09:57:18;;;;;;;;;;;;;;;-144.99;100.00;52366.56;5038987;28;20016;-75
2021/09/25 09:59:46;;;;;;;;;;;;;;;-144.99;100.00;52350.25;5052917;28;19980;-74
2021/09/25 10:02:12;;;;;;;;;;;;;;;-144.99;100.00;52380.84;5052838;28;19990;-75
2021/09/25 10:04:39;;;;;;;;;;;;;;;-144.99;100.00;52366.56;5052774;28;20071;-75
2021/09/25 10:07:06;;;;;;;;;;;;;;;-144.99;100.00;52358.41;5052682;28;20006;-76
2021/09/25 10:09:34;;;;;;;;;;;;;;;-144.99;99.50;52374.72;5052664;28;19987;-76
2021/09/25 10:12:01;;;;;;;;;;;;;;;-144.99;99.03;52340.06;5053438;28;19999;-77
2021/09/25 10:14:29;;;;;;;;;;;;;;;-144.99;98.61;52370.63;5053052;28;20002;-76
2021/09/25 10:16:59;;;;;;;;;;;;;;;-144.99;98.16;52374.72;5052033;28;20485;-75
2021/09/25 10:19:30;;;;;;;;;;;;;;;-144.99;97.99;52378.78;5051882;28;19980;-75
2021/09/25 10:21:58;;;;;;;;;;;;;;;-144.99;97.47;52333.94;5063927;28;20082;-76
2021/09/25 10:24:27;;;;;;;;;;;;;;;-144.99;96.89;52372.69;5052007;28;20040;-75
2021/09/25 10:26:55;;;;;;;;;;;;;;;-144.99;96.02;52370.63;5048586;28;19994;-76
2021/09/25 10:29:22;;;;;;;;;;;;;;;-144.99;95.72;52346.19;5040147;28;19988;-77
2021/09/25 10:31:50;;;;;;;;;;;;;;;-144.99;94.91;52382.88;5051679;28;19981;-77
2021/09/25 10:34:18;;;;;;;;;;;;;;;-144.99;95.39;52329.88;5051589;28;19984;-76
2021/09/25 10:36:47;;;;;;;;;;;;;;;-144.99;94.91;52380.84;5052722;28;20337;-77
2021/09/25 10:39:29;;;;;;;;;;;;;;;-144.99;93.91;52321.72;5061795;28;20001;-78
2021/09/25 10:42:06;;;;;;;;;;;;;;;-144.99;94.41;52342.09;5065007;28;19976;-76
2021/09/25 10:44:34;;;;;;;;;;;;;;;-144.99;94.86;52319.69;5048992;28;19982;-76
2021/09/25 10:47:12;;;;;;;;;;;;;;;-144.99;92.28;52307.47;5049617;28;20038;-75
2021/09/25 10:49:46;;;;;;;;;;;;;;;-144.99;88.46;52340.06;5048887;28;19985;-76
2021/09/25 10:52:13;;;;;;;;;;;;;;;-144.99;89.67;52370.63;5039689;28;20040;-75
2021/09/25 10:54:40;;;;;;;;;;;;;;;-144.99;90.13;52370.63;5048993;28;19963;-75
2021/09/25 10:57:15;;;;;;;;;;;;;;;-144.99;89.48;52333.94;5048042;28;20323;-75
2021/09/25 10:59:57;;;;;;;;;;;;;;;-144.99;89.67;52325.81;5039489;28;19951;-74
2021/09/25 11:02:38;;;;;;;;;;;;;;;-144.99;89.11;52309.50;5042930;28;19933;-75
2021/09/25 11:05:06;;;;;;;;;;;;;;;-144.99;90.07;52358.41;5048609;28;20057;-75
2021/09/25 11:07:36;;;;;;;;;;;;;;;-144.99;90.86;52366.56;5055540;28;19940;-74
2021/09/25 11:10:02;;;;;;;;;;;;;;;-144.99;92.07;52362.50;5050502;28;19924;-69
2021/09/25 11:12:42;;;;;;;;;;;;;;;-144.99;92.28;52356.38;5054454;28;20011;-69
2021/09/25 11:15:29;;;;;;;;;;;;;;;-144.99;92.45;52370.63;5037045;28;19936;-70
2021/09/25 11:18:24;;;;;;;;;;;;;;;-144.99;92.43;52395.09;5046866;28;20008;-70
2021/09/25 11:20:52;;;;;;;;;;;;;;;-144.99;92.56;52374.72;5045408;28;20375;-71
2021/09/25 11:23:19;;;;;;;;;;;;;;;-144.99;92.70;52407.31;5056912;28;19960;-70
2021/09/25 11:25:49;;;;;;;;;;;;;;;-144.99;92.40;52386.94;5047868;28;19974;-71
2021/09/25 11:28:21;;;;;;;;;;;;;;;-144.99;92.65;52352.28;5035966;28;20139;-70
2021/09/25 11:30:48;;;;;;;;;;;;;;;-144.99;92.33;52338.03;5048121;28;20043;-75
2021/09/25 11:33:14;;;;;;;;;;;;;;;-144.99;91.65;52358.41;5048970;28;20013;-76
2021/09/25 11:35:41;;;;;;;;;;;;;;;-144.99;91.49;52350.25;4344646;28;10000751;-74
2021/09/25 11:38:10;;;;;;;;;;;;;;;-144.99;91.08;52350.25;5045783;28;19978;-73
2021/09/25 11:40:38;;;;;;;;;;;;;;;-144.99;90.04;52342.09;5045442;28;19998;-75
2021/09/25 11:43:06;;;;;;;;;;;;;;;-144.99;89.20;52342.09;5047242;28;20119;-74
2021/09/25 11:45:33;;;;;;;;;;;;;;;-144.99;88.01;52301.34;5045914;28;20630;-76
2021/09/25 11:48:02;;;;;;;;;;;;;;;-144.99;87.42;52329.88;5045458;28;19979;-75
2021/09/25 11:50:31;;;;;;;;;;;;;;;-144.99;87.55;52329.88;5044879;28;19962;-74
2021/09/25 11:52:58;;;;;;;;;;;;;;;-144.99;87.53;52321.72;5054524;28;19947;-76
2021/09/25 11:55:27;;;;;;;;;;;;;;;-144.99;87.36;52305.41;5054263;28;19974;-74
2021/09/25 11:57:54;;;;;;;;;;;;;;;-144.99;86.60;52358.41;5045581;28;20063;-74
2021/09/25 12:00:25;;;;;;;;;;;;;;;-144.99;86.65;52370.63;5046089;28;19955;-74
2021/09/25 12:02:53;;;;;;;;;;;;;;;-144.99;86.83;52358.41;5048280;28;19952;-75
2021/09/25 12:05:26;;;;;;;;;;;;;;;-144.99;86.56;52364.53;5047932;28;20396;-75
2021/09/25 12:07:53;;;;;;;;;;;;;;;-144.99;86.97;52358.41;5049312;28;19971;-73
2021/09/25 12:10:21;;;;;;;;;;;;;;;-144.99;87.25;52384.91;5054673;28;20401;-74
2021/09/25 12:12:54;;;;;;;;;;;;;;;-144.99;86.78;52358.41;5055310;28;19961;-75
2021/09/25 12:15:24;;;;;;;;;;;;;;;-144.99;86.62;52329.88;5050682;28;20428;-75
2021/09/25 12:18:04;;;;;;;;;;;;;;;-144.99;86.96;52358.41;5048902;28;19971;-75
2021/09/25 12:20:32;;;;;;;;;;;;;;;-144.99;87.22;52358.41;5043837;28;19952;-76